Newcastle, New South Wales

6:27 PM AEST on August 25, 2016 (GMT +1000)
| | Change Station

Elev -9999 ft 0.00 °N, 0.00 °E | Updated

Rain
Rain
51 °F
Feels Like 51 °F
N
4
Wind Variable Wind from WNW
Gusts mph

Today
High -- | Low -- °F
--% Chance of Precip.
Yesterday
High -- | Low -- °F
Precip. -- in
Pressure 29.92 in
Visibility 6.2 miles
Clouds Few 1700 ft
Scattered Clouds 4500 ft
Mostly Cloudy 5000 ft
Dew Point 46 °F
Humidity 81%
Rainfall --
Snow Depth Not available.
6:19 AM 5:31 PM
Waning Gibbous, 48% visible
METAR YWLM 250800Z 23007KT 9999 -SHRA FEW017 SCT045 BKN050 11/09 Q1013 FM0900 25007KT 9999 FEW015 SCT045 BKN050
Pressure 29.92 in
Visibility 6.2 miles
Clouds Few 1700 ft
Scattered Clouds 4500 ft
Mostly Cloudy 5000 ft
Dew Point 46 °F
Humidity 81%
Rainfall --
Snow Depth Not available.
6:19 AM 5:31 PM
Waning Gibbous, 48% visible
METAR YWLM 250800Z 23007KT 9999 -SHRA FEW017 SCT045 BKN050 11/09 Q1013 FM0900 25007KT 9999 FEW015 SCT045 BKN050

10-Day Weather Forecast

Almanac

Astronomy

Aug. 25, 2016 Rise Set
Actual Time
Civil Twilight
Nautical Twilight
Astronomical Twilight
Moon
Length of Visible Light
Length of Day
Tomorrow will be .
, % of the Moon is Illuminated

Today's Extremes

Country Highs Country Lows

Community

WunderPhotos

Upload Photos

1,934,814 photos uploaded!

WunderBlog® & News

Nearby

Air Quality

  Air Quality AQ Index Pollutant
Not available.

Snow Depth

Station Depth Elevation

Earthquake Activity

City Distance Mag. Time & Date
Minimum magnitude displayed is 2.5.

Coastal Water Temperatures

Place Temperature

Stations

Nearby Weather Stations

Station Location Temp. Windchill Dew Point Humidity Wind Precip. Elev Updated Type